sensor_id;sensor_type;location;lat;lon;timestamp;pressure;altitude;pressure_sealevel;temperature;humidity
38452;BME280;24231;52.514;13.438;2023-04-01T00:00:19;99204.09;;;14.58;58.47
38452;BME280;24231;52.514;13.438;2023-04-01T00:02:47;99202.81;;;14.51;59.30
38452;BME280;24231;52.514;13.438;2023-04-01T00:05:15;99201.17;;;13.35;63.30
38452;BME280;24231;52.514;13.438;2023-04-01T00:07:42;99203.90;;;14.42;59.45
38452;BME280;24231;52.514;13.438;2023-04-01T00:10:12;99203.12;;;12.73;64.58
38452;BME280;24231;52.514;13.438;2023-04-01T00:12:39;99202.40;;;12.88;64.58
38452;BME280;24231;52.514;13.438;2023-04-01T00:15:11;99198.96;;;13.92;61.45
38452;BME280;24231;52.514;13.438;2023-04-01T00:17:38;99199.09;;;14.25;60.13
38452;BME280;24231;52.514;13.438;2023-04-01T00:20:07;99200.99;;;14.38;59.76
38452;BME280;24231;52.514;13.438;2023-04-01T00:22:34;99203.54;;;14.49;58.99
38452;BME280;24231;52.514;13.438;2023-04-01T00:25:01;99201.14;;;13.69;62.14
38452;BME280;24231;52.514;13.438;2023-04-01T00:27:28;99203.75;;;13.97;60.46
38452;BME280;24231;52.514;13.438;2023-04-01T00:29:56;99204.07;;;14.45;58.88
38452;BME280;24231;52.514;13.438;2023-04-01T00:32:23;99200.46;;;14.77;58.39
38452;BME280;24231;52.514;13.438;2023-04-01T00:34:51;99195.90;;;14.21;59.51
38452;BME280;24231;52.514;13.438;2023-04-01T00:37:18;99196.93;;;14.31;59.40
38452;BME280;24231;52.514;13.438;2023-04-01T00:39:45;99197.03;;;14.61;58.70
38452;BME280;24231;52.514;13.438;2023-04-01T00:42:13;99195.23;;;14.71;58.35
38452;BME280;24231;52.514;13.438;2023-04-01T00:44:40;99196.01;;;14.70;58.55
38452;BME280;24231;52.514;13.438;2023-04-01T00:47:07;99196.81;;;13.97;60.92
38452;BME280;24231;52.514;13.438;2023-04-01T00:49:37;99195.71;;;14.43;59.21
38452;BME280;24231;52.514;13.438;2023-04-01T00:52:08;99196.22;;;14.16;60.05
38452;BME280;24231;52.514;13.438;2023-04-01T00:54:37;99198.14;;;14.71;58.63
38452;BME280;24231;52.514;13.438;2023-04-01T00:57:07;99198.21;;;12.96;63.53
38452;BME280;24231;52.514;13.438;2023-04-01T00:59:40;99200.28;;;13.25;63.58
38452;BME280;24231;52.514;13.438;2023-04-01T01:02:11;99197.89;;;13.41;63.10
38452;BME280;24231;52.514;13.438;2023-04-01T01:04:38;99198.80;;;13.47;63.05
38452;BME280;24231;52.514;13.438;2023-04-01T01:07:15;99201.38;;;12.29;66.37
38452;BME280;24231;52.514;13.438;2023-04-01T01:09:51;99199.63;;;12.97;64.75
38452;BME280;24231;52.514;13.438;2023-04-01T01:12:27;99199.80;;;13.30;64.11
38452;BME280;24231;52.514;13.438;2023-04-01T01:15:02;99197.21;;;14.29;60.64
38452;BME280;24231;52.514;13.438;2023-04-01T01:17:40;99197.47;;;13.72;62.91
38452;BME280;24231;52.514;13.438;2023-04-01T01:21:30;99200.25;;;14.53;59.45
38452;BME280;24231;52.514;13.438;2023-04-01T01:25:17;99202.02;;;12.28;66.96
38452;BME280;24231;52.514;13.438;2023-04-01T01:27:54;99200.10;;;13.36;64.02
38452;BME280;24231;52.514;13.438;2023-04-01T01:30:35;99203.08;;;14.01;61.72
38452;BME280;24231;52.514;13.438;2023-04-01T01:33:16;99205.31;;;11.83;70.72
38452;BME280;24231;52.514;13.438;2023-04-01T01:35:47;99209.29;;;12.50;67.27
38452;BME280;24231;52.514;13.438;2023-04-01T01:38:18;99209.35;;;11.99;68.53
38452;BME280;24231;52.514;13.438;2023-04-01T01:40:48;99207.74;;;13.98;62.45
38452;BME280;24231;52.514;13.438;2023-04-01T01:43:19;99209.36;;;13.65;63.07
38452;BME280;24231;52.514;13.438;2023-04-01T01:45:51;99209.66;;;13.23;64.50
38452;BME280;24231;52.514;13.438;2023-04-01T01:48:20;99209.60;;;13.65;63.32
38452;BME280;24231;52.514;13.438;2023-04-01T01:50:48;99209.36;;;14.36;61.46
38452;BME280;24231;52.514;13.438;2023-04-01T01:53:15;99212.32;;;13.94;62.32
38452;BME280;24231;52.514;13.438;2023-04-01T01:55:44;99209.96;;;13.74;63.29
38452;BME280;24231;52.514;13.438;2023-04-01T01:58:14;99210.41;;;13.91;63.34
38452;BME280;24231;52.514;13.438;2023-04-01T02:00:46;99214.16;;;14.17;61.54
38452;BME280;24231;52.514;13.438;2023-04-01T02:03:15;99220.87;;;14.49;60.88
38452;BME280;24231;52.514;13.438;2023-04-01T02:05:44;99217.51;;;13.40;64.64
38452;BME280;24231;52.514;13.438;2023-04-01T02:08:14;99219.71;;;13.72;63.50
38452;BME280;24231;52.514;13.438;2023-04-01T02:10:52;99219.75;;;14.23;61.25
38452;BME280;24231;52.514;13.438;2023-04-01T02:13:26;99219.67;;;14.61;60.38
38452;BME280;24231;52.514;13.438;2023-04-01T02:16:00;99218.19;;;14.22;61.65
38452;BME280;24231;52.514;13.438;2023-04-01T02:18:30;99221.28;;;14.70;59.86
38452;BME280;24231;52.514;13.438;2023-04-01T02:21:01;99221.39;;;14.58;60.92
38452;BME280;24231;52.514;13.438;2023-04-01T02:23:30;99218.69;;;14.06;62.25
38452;BME280;24231;52.514;13.438;2023-04-01T02:25:58;99220.95;;;12.68;67.22
38452;BME280;24231;52.514;13.438;2023-04-01T02:28:27;99219.14;;;12.60;68.72
38452;BME280;24231;52.514;13.438;2023-04-01T02:30:57;99218.35;;;13.31;65.79
38452;BME280;24231;52.514;13.438;2023-04-01T02:33:27;99218.66;;;14.11;62.99
38452;BME280;24231;52.514;13.438;2023-04-01T02:35:55;99220.22;;;13.97;63.07
38452;BME280;24231;52.514;13.438;2023-04-01T02:38:22;99221.32;;;14.09;62.34
38452;BME280;24231;52.514;13.438;2023-04-01T02:40:52;99227.12;;;14.24;61.46
38452;BME280;24231;52.514;13.438;2023-04-01T02:43:24;99227.27;;;14.43;61.00
38452;BME280;24231;52.514;13.438;2023-04-01T02:45:51;99229.16;;;14.53;60.50
38452;BME280;24231;52.514;13.438;2023-04-01T02:48:18;99230.70;;;14.49;60.65
38452;BME280;24231;52.514;13.438;2023-04-01T02:50:46;99230.48;;;14.31;61.03
38452;BME280;24231;52.514;13.438;2023-04-01T02:53:13;99233.60;;;13.25;64.70
38452;BME280;24231;52.514;13.438;2023-04-01T02:55:40;99234.35;;;14.13;61.20
38452;BME280;24231;52.514;13.438;2023-04-01T02:58:07;99238.55;;;13.97;61.67
38452;BME280;24231;52.514;13.438;2023-04-01T03:00:35;99241.75;;;14.52;60.17
38452;BME280;24231;52.514;13.438;2023-04-01T03:03:02;99241.86;;;14.68;59.31
38452;BME280;24231;52.514;13.438;2023-04-01T03:05:29;99243.40;;;14.63;59.11
38452;BME280;24231;52.514;13.438;2023-04-01T03:07:56;99244.06;;;14.71;59.87
38452;BME280;24231;52.514;13.438;2023-04-01T03:10:23;99243.64;;;14.40;60.81
38452;BME280;24231;52.514;13.438;2023-04-01T03:12:51;99245.55;;;14.42;60.99
38452;BME280;24231;52.514;13.438;2023-04-01T03:15:18;99245.56;;;14.65;60.11
38452;BME280;24231;52.514;13.438;2023-04-01T03:17:45;99243.49;;;14.53;59.98
38452;BME280;24231;52.514;13.438;2023-04-01T03:20:13;99242.36;;;14.50;59.42
38452;BME280;24231;52.514;13.438;2023-04-01T03:22:41;99242.63;;;14.25;60.05
38452;BME280;24231;52.514;13.438;2023-04-01T03:25:09;99247.88;;;12.47;65.59
38452;BME280;24231;52.514;13.438;2023-04-01T03:27:36;99250.24;;;12.15;67.60
38452;BME280;24231;52.514;13.438;2023-04-01T03:30:05;99245.83;;;13.85;61.79
38452;BME280;24231;52.514;13.438;2023-04-01T03:32:33;99248.73;;;14.06;61.39
38452;BME280;24231;52.514;13.438;2023-04-01T03:35:00;99251.91;;;14.75;58.63
38452;BME280;24231;52.514;13.438;2023-04-01T03:37:28;99249.19;;;13.39;63.03
38452;BME280;24231;52.514;13.438;2023-04-01T03:39:55;99254.06;;;14.46;59.04
38452;BME280;24231;52.514;13.438;2023-04-01T03:42:32;99254.01;;;13.08;64.06
38452;BME280;24231;52.514;13.438;2023-04-01T03:45:00;99256.69;;;14.53;58.47
38452;BME280;24231;52.514;13.438;2023-04-01T03:47:32;99260.31;;;14.92;56.71
38452;BME280;24231;52.514;13.438;2023-04-01T03:50:00;99262.29;;;15.26;55.93
38452;BME280;24231;52.514;13.438;2023-04-01T03:52:26;99263.60;;;15.11;56.28
38452;BME280;24231;52.514;13.438;2023-04-01T03:54:54;99263.49;;;13.55;61.01
38452;BME280;24231;52.514;13.438;2023-04-01T03:57:22;99269.18;;;14.36;58.43
38452;BME280;24231;52.514;13.438;2023-04-01T03:59:55;99270.68;;;15.11;56.03
38452;BME280;24231;52.514;13.438;2023-04-01T04:02:22;99270.83;;;14.65;57.38
38452;BME280;24231;52.514;13.438;2023-04-01T04:04:49;99272.36;;;14.36;58.60
38452;BME280;24231;52.514;13.438;2023-04-01T04:07:16;99275.70;;;14.26;59.23
38452;BME280;24231;52.514;13.438;2023-04-01T04:09:44;99281.11;;;14.45;58.31
38452;BME280;24231;52.514;13.438;2023-04-01T04:12:11;99283.51;;;14.81;57.73
38452;BME280;24231;52.514;13.438;2023-04-01T04:14:38;99283.34;;;14.78;58.19
38452;BME280;24231;52.514;13.438;2023-04-01T04:17:06;99285.80;;;14.52;58.43
38452;BME280;24231;52.514;13.438;2023-04-01T04:19:33;99286.24;;;14.89;57.40
38452;BME280;24231;52.514;13.438;2023-04-01T04:22:00;99286.34;;;14.38;59.27
38452;BME280;24231;52.514;13.438;2023-04-01T04:24:27;99289.27;;;14.89;57.68
38452;BME280;24231;52.514;13.438;2023-04-01T04:26:54;99291.22;;;14.97;57.50
38452;BME280;24231;52.514;13.438;2023-04-01T04:29:23;99292.63;;;15.00;57.41
38452;BME280;24231;52.514;13.438;2023-04-01T04:31:50;99288.07;;;14.05;60.40
38452;BME280;24231;52.514;13.438;2023-04-01T04:34:17;99290.22;;;13.98;60.68
38452;BME280;24231;52.514;13.438;2023-04-01T04:36:45;99294.93;;;13.49;63.10
38452;BME280;24231;52.514;13.438;2023-04-01T04:39:12;99299.48;;;13.43;62.99
38452;BME280;24231;52.514;13.438;2023-04-01T04:41:39;99301.39;;;12.30;67.38
38452;BME280;24231;52.514;13.438;2023-04-01T04:44:07;99299.62;;;13.89;61.81
38452;BME280;24231;52.514;13.438;2023-04-01T04:46:34;99299.06;;;13.58;62.68
38452;BME280;24231;52.514;13.438;2023-04-01T04:49:01;99303.34;;;13.90;61.55
38452;BME280;24231;52.514;13.438;2023-04-01T04:51:29;99304.63;;;13.82;62.34
38452;BME280;24231;52.514;13.438;2023-04-01T04:53:56;99303.81;;;13.67;62.66
38452;BME280;24231;52.514;13.438;2023-04-01T04:56:23;99304.23;;;13.64;62.68
38452;BME280;24231;52.514;13.438;2023-04-01T04:58:50;99306.20;;;13.90;62.23
38452;BME280;24231;52.514;13.438;2023-04-01T05:01:18;99307.30;;;13.68;62.69
38452;BME280;24231;52.514;13.438;2023-04-01T05:03:45;99303.53;;;14.18;61.18
38452;BME280;24231;52.514;13.438;2023-04-01T05:06:17;99303.97;;;14.28;60.61
38452;BME280;24231;52.514;13.438;2023-04-01T05:08:45;99305.92;;;14.02;61.58
38452;BME280;24231;52.514;13.438;2023-04-01T05:11:14;99309.03;;;13.87;62.58
38452;BME280;24231;52.514;13.438;2023-04-01T05:13:42;99315.11;;;14.01;61.44
38452;BME280;24231;52.514;13.438;2023-04-01T05:16:11;99315.73;;;13.52;63.22
38452;BME280;24231;52.514;13.438;2023-04-01T05:18:39;99314.91;;;13.90;60.46
38452;BME280;24231;52.514;13.438;2023-04-01T05:21:07;99317.32;;;13.67;61.50
38452;BME280;24231;52.514;13.438;2023-04-01T05:23:35;99316.79;;;13.50;63.50
38452;BME280;24231;52.514;13.438;2023-04-01T05:26:03;99319.83;;;13.75;62.81
38452;BME280;24231;52.514;13.438;2023-04-01T05:28:31;99320.84;;;14.34;60.31
38452;BME280;24231;52.514;13.438;2023-04-01T05:30:59;99324.86;;;13.87;62.17
38452;BME280;24231;52.514;13.438;2023-04-01T05:33:27;99326.27;;;14.56;59.67
38452;BME280;24231;52.514;13.438;2023-04-01T05:35:55;99330.49;;;14.87;58.70
38452;BME280;24231;52.514;13.438;2023-04-01T05:38:22;99331.12;;;14.96;58.21
38452;BME280;24231;52.514;13.438;2023-04-01T05:40:49;99332.99;;;14.86;58.75
38452;BME280;24231;52.514;13.438;2023-04-01T05:43:16;99332.20;;;14.78;59.24
38452;BME280;24231;52.514;13.438;2023-04-01T05:45:44;99331.20;;;15.22;57.93
38452;BME280;24231;52.514;13.438;2023-04-01T05:48:11;99335.51;;;15.03;58.49
38452;BME280;24231;52.514;13.438;2023-04-01T05:50:40;99336.90;;;14.91;59.10
38452;BME280;24231;52.514;13.438;2023-04-01T05:53:07;99338.10;;;14.74;59.79
38452;BME280;24231;52.514;13.438;2023-04-01T05:55:35;99337.64;;;14.17;62.35
38452;BME280;24231;52.514;13.438;2023-04-01T06:01:23;99345.39;;;14.64;60.86
38452;BME280;24231;52.514;13.438;2023-04-01T06:03:49;99348.42;;;14.64;60.73
38452;BME280;24231;52.514;13.438;2023-04-01T06:06:22;99349.99;;;15.09;58.93
38452;BME280;24231;52.514;13.438;2023-04-01T06:08:51;99352.41;;;15.16;59.00
38452;BME280;24231;52.514;13.438;2023-04-01T06:11:26;99351.89;;;14.96;58.77
38452;BME280;24231;52.514;13.438;2023-04-01T06:14:07;99356.39;;;14.88;59.33
38452;BME280;24231;52.514;13.438;2023-04-01T06:16:47;99358.12;;;14.90;60.17
38452;BME280;24231;52.514;13.438;2023-04-01T06:19:27;99361.45;;;14.67;60.98
38452;BME280;24231;52.514;13.438;2023-04-01T06:22:15;99368.23;;;13.90;63.09
38452;BME280;24231;52.514;13.438;2023-04-01T06:25:05;99368.81;;;14.37;62.21
38452;BME280;24231;52.514;13.438;2023-04-01T06:27:48;99372.33;;;13.60;63.62
38452;BME280;24231;52.514;13.438;2023-04-01T06:30:31;99372.66;;;14.34;62.00
38452;BME280;24231;52.514;13.438;2023-04-01T06:33:13;99375.36;;;13.88;62.72
38452;BME280;24231;52.514;13.438;2023-04-01T06:35:59;99379.42;;;13.87;63.52
38452;BME280;24231;52.514;13.438;2023-04-01T06:40:58;99380.66;;;14.88;60.99
38452;BME280;24231;52.514;13.438;2023-04-01T06:43:38;99381.36;;;14.57;61.25
38452;BME280;24231;52.514;13.438;2023-04-01T06:46:14;99385.57;;;14.99;60.13
38452;BME280;24231;52.514;13.438;2023-04-01T06:48:55;99387.82;;;14.94;60.27
38452;BME280;24231;52.514;13.438;2023-04-01T06:51:33;99386.06;;;15.10;60.63
38452;BME280;24231;52.514;13.438;2023-04-01T06:54:10;99386.59;;;14.96;61.21
38452;BME280;24231;52.514;13.438;2023-04-01T06:56:42;99386.80;;;14.74;62.03
38452;BME280;24231;52.514;13.438;2023-04-01T06:59:13;99390.37;;;14.57;62.54
38452;BME280;24231;52.514;13.438;2023-04-01T07:01:47;99393.41;;;14.56;62.84
38452;BME280;24231;52.514;13.438;2023-04-01T07:04:20;99392.75;;;14.67;62.69
38452;BME280;24231;52.514;13.438;2023-04-01T07:06:53;99393.18;;;14.86;61.75
38452;BME280;24231;52.514;13.438;2023-04-01T07:09:24;99395.78;;;14.62;63.02
38452;BME280;24231;52.514;13.438;2023-04-01T07:11:58;99394.74;;;14.87;61.87
38452;BME280;24231;52.514;13.438;2023-04-01T07:14:32;99394.25;;;14.82;62.16
38452;BME280;24231;52.514;13.438;2023-04-01T07:17:06;99398.18;;;14.84;62.34
38452;BME280;24231;52.514;13.438;2023-04-01T07:19:41;99399.88;;;15.01;62.09
38452;BME280;24231;52.514;13.438;2023-04-01T07:22:29;99401.70;;;14.79;63.13
38452;BME280;24231;52.514;13.438;2023-04-01T07:25:03;99403.43;;;14.84;62.64
38452;BME280;24231;52.514;13.438;2023-04-01T07:27:32;99404.61;;;14.82;62.31
38452;BME280;24231;52.514;13.438;2023-04-01T07:30:01;99405.57;;;14.94;62.29
38452;BME280;24231;52.514;13.438;2023-04-01T07:32:37;99410.51;;;14.80;62.28
38452;BME280;24231;52.514;13.438;2023-04-01T07:35:15;99412.53;;;14.95;61.39
38452;BME280;24231;52.514;13.438;2023-04-01T07:37:55;99415.07;;;14.84;61.98
38452;BME280;24231;52.514;13.438;2023-04-01T07:40:32;99418.17;;;14.77;62.56
38452;BME280;24231;52.514;13.438;2023-04-01T07:43:14;99419.69;;;14.67;62.80
38452;BME280;24231;52.514;13.438;2023-04-01T07:45:53;99419.25;;;14.51;63.21
38452;BME280;24231;52.514;13.438;2023-04-01T07:48:28;99420.95;;;14.54;63.50
38452;BME280;24231;52.514;13.438;2023-04-01T07:51:02;99421.91;;;14.59;63.19
38452;BME280;24231;52.514;13.438;2023-04-01T07:53:37;99424.31;;;14.69;63.58
38452;BME280;24231;52.514;13.438;2023-04-01T07:56:07;99423.94;;;14.85;63.67
38452;BME280;24231;52.514;13.438;2023-04-01T07:58:42;99427.04;;;14.50;63.27
38452;BME280;24231;52.514;13.438;2023-04-01T08:01:18;99431.07;;;14.21;64.07
38452;BME280;24231;52.514;13.438;2023-04-01T08:04:02;99431.99;;;14.36;63.37
38452;BME280;24231;52.514;13.438;2023-04-01T08:06:37;99434.69;;;14.49;64.20
38452;BME280;24231;52.514;13.438;2023-04-01T08:09:12;99435.65;;;13.92;65.34
38452;BME280;24231;52.514;13.438;2023-04-01T08:11:55;99439.59;;;14.25;65.97
38452;BME280;24231;52.514;13.438;2023-04-01T08:14:31;99441.51;;;13.98;66.74
38452;BME280;24231;52.514;13.438;2023-04-01T08:17:05;99444.58;;;13.74;66.82
38452;BME280;24231;52.514;13.438;2023-04-01T08:19:49;99451.33;;;12.27;72.47
38452;BME280;24231;52.514;13.438;2023-04-01T08:22:23;99456.52;;;12.50;71.29
38452;BME280;24231;52.514;13.438;2023-04-01T08:24:55;99459.58;;;10.88;77.38
38452;BME280;24231;52.514;13.438;2023-04-01T08:27:31;99455.80;;;11.18;77.99
38452;BME280;24231;52.514;13.438;2023-04-01T08:30:04;99469.64;;;8.70;87.81
38452;BME280;24231;52.514;13.438;2023-04-01T08:32:34;99469.64;;;9.58;85.42
38452;BME280;24231;52.514;13.438;2023-04-01T08:35:14;99470.30;;;10.23;82.30
38452;BME280;24231;52.514;13.438;2023-04-01T08:37:45;99476.16;;;10.40;79.82
38452;BME280;24231;52.514;13.438;2023-04-01T08:40:28;99476.82;;;11.47;75.91
38452;BME280;24231;52.514;13.438;2023-04-01T08:43:07;99478.22;;;11.45;74.88
38452;BME280;24231;52.514;13.438;2023-04-01T08:45:47;99479.34;;;11.59;74.38
38452;BME280;24231;52.514;13.438;2023-04-01T08:48:32;99480.12;;;11.35;74.96
38452;BME280;24231;52.514;13.438;2023-04-01T08:51:15;99485.43;;;12.13;72.68
38452;BME280;24231;52.514;13.438;2023-04-01T08:53:58;99483.26;;;12.75;69.75
38452;BME280;24231;52.514;13.438;2023-04-01T08:56:34;99485.51;;;12.27;70.60
38452;BME280;24231;52.514;13.438;2023-04-01T08:59:16;99486.19;;;10.86;76.14
38452;BME280;24231;52.514;13.438;2023-04-01T09:02:04;99488.32;;;10.41;78.06
38452;BME280;24231;52.514;13.438;2023-04-01T09:04:57;99486.24;;;10.99;78.19
38452;BME280;24231;52.514;13.438;2023-04-01T09:07:37;99488.32;;;11.46;74.79
38452;BME280;24231;52.514;13.438;2023-04-01T09:10:19;99489.24;;;10.95;74.74
38452;BME280;24231;52.514;13.438;2023-04-01T09:12:59;99492.77;;;11.85;72.86
38452;BME280;24231;52.514;13.438;2023-04-01T09:15:37;99492.92;;;11.43;74.50
38452;BME280;24231;52.514;13.438;2023-04-01T09:18:31;99499.24;;;11.28;73.92
38452;BME280;24231;52.514;13.438;2023-04-01T09:21:20;99506.39;;;12.05;69.05
38452;BME280;24231;52.514;13.438;2023-04-01T09:24:06;99511.62;;;12.75;67.27
38452;BME280;24231;52.514;13.438;2023-04-01T09:26:52;99517.08;;;12.02;69.02
38452;BME280;24231;52.514;13.438;2023-04-01T09:29:39;99517.81;;;10.68;74.80
38452;BME280;24231;52.514;13.438;2023-04-01T09:32:24;99525.72;;;10.24;75.87
38452;BME280;24231;52.514;13.438;2023-04-01T09:35:05;99530.95;;;9.82;77.40
38452;BME280;24231;52.514;13.438;2023-04-01T09:37:54;99530.23;;;10.59;75.85
38452;BME280;24231;52.514;13.438;2023-04-01T09:40:37;99537.14;;;8.34;83.52
38452;BME280;24231;52.514;13.438;2023-04-01T09:43:25;99536.43;;;9.12;81.21
38452;BME280;24231;52.514;13.438;2023-04-01T09:46:04;99538.80;;;9.34;80.99
38452;BME280;24231;52.514;13.438;2023-04-01T09:48:45;99541.93;;;11.19;72.76
38452;BME280;24231;52.514;13.438;2023-04-01T09:51:23;99547.53;;;9.95;76.42
38452;BME280;24231;52.514;13.438;2023-04-01T09:54:06;99552.39;;;9.45;80.33
38452;BME280;24231;52.514;13.438;2023-04-01T09:57:16;99553.34;;;9.96;76.75
38452;BME280;24231;52.514;13.438;2023-04-01T10:00:07;99555.34;;;10.08;77.01
38452;BME280;24231;52.514;13.438;2023-04-01T10:03:02;99563.96;;;8.69;81.30
38452;BME280;24231;52.514;13.438;2023-04-01T10:08:48;99559.04;;;10.17;76.20
38452;BME280;24231;52.514;13.438;2023-04-01T10:11:35;99561.92;;;10.98;72.11
38452;BME280;24231;52.514;13.438;2023-04-01T10:14:28;99567.89;;;9.85;76.95
38452;BME280;24231;52.514;13.438;2023-04-01T10:17:35;99567.45;;;10.62;74.57
38452;BME280;24231;52.514;13.438;2023-04-01T10:20:27;99571.78;;;10.76;72.31
38452;BME280;24231;52.514;13.438;2023-04-01T10:23:13;99576.71;;;9.38;77.36
38452;BME280;24231;52.514;13.438;2023-04-01T10:26:09;99573.88;;;10.01;75.46
38452;BME280;24231;52.514;13.438;2023-04-01T10:29:02;99574.38;;;10.86;72.14
38452;BME280;24231;52.514;13.438;2023-04-01T10:32:13;99575.79;;;10.31;74.03
38452;BME280;24231;52.514;13.438;2023-04-01T10:35:04;99579.87;;;10.20;74.63
38452;BME280;24231;52.514;13.438;2023-04-01T10:37:52;99584.07;;;9.42;77.76
38452;BME280;24231;52.514;13.438;2023-04-01T10:40:36;99583.82;;;9.94;76.03
38452;BME280;24231;52.514;13.438;2023-04-01T10:43:29;99590.02;;;9.29;78.81
38452;BME280;24231;52.514;13.438;2023-04-01T10:46:31;99597.18;;;9.22;79.39
38452;BME280;24231;52.514;13.438;2023-04-01T10:49:18;99587.90;;;10.01;76.58
38452;BME280;24231;52.514;13.438;2023-04-01T10:52:11;99599.61;;;9.02;80.93
38452;BME280;24231;52.514;13.438;2023-04-01T10:54:47;99586.88;;;10.02;76.87
38452;BME280;24231;52.514;13.438;2023-04-01T10:57:34;99590.53;;;10.21;75.57
38452;BME280;24231;52.514;13.438;2023-04-01T11:00:37;99598.61;;;9.47;78.30
38452;BME280;24231;52.514;13.438;2023-04-01T11:10:53;99615.44;;;9.51;78.47
38452;BME280;24231;52.514;13.438;2023-04-01T11:14:15;99611.97;;;8.84;79.14
38452;BME280;24231;52.514;13.438;2023-04-01T11:17:10;99614.42;;;8.77;79.89
38452;BME280;24231;52.514;13.438;2023-04-01T11:22:38;99617.95;;;9.37;79.75
38452;BME280;24231;52.514;13.438;2023-04-01T11:25:29;99622.04;;;8.32;82.49
38452;BME280;24231;52.514;13.438;2023-04-01T11:28:17;99617.90;;;8.47;82.34
38452;BME280;24231;52.514;13.438;2023-04-01T11:31:08;99631.07;;;8.82;81.34
38452;BME280;24231;52.514;13.438;2023-04-01T11:33:44;99625.75;;;8.98;78.64
38452;BME280;24231;52.514;13.438;2023-04-01T11:36:21;99629.40;;;8.34;81.75
38452;BME280;24231;52.514;13.438;2023-04-01T11:39:04;99636.46;;;8.92;80.24
38452;BME280;24231;52.514;13.438;2023-04-01T11:41:45;99636.66;;;8.41;81.58
38452;BME280;24231;52.514;13.438;2023-04-01T11:44:18;99646.82;;;8.07;82.67
38452;BME280;24231;52.514;13.438;2023-04-01T11:47:02;99641.18;;;8.26;82.33
38452;BME280;24231;52.514;13.438;2023-04-01T11:49:44;99648.90;;;8.10;83.67
38452;BME280;24231;52.514;13.438;2023-04-01T11:52:21;99651.72;;;7.80;85.49
38452;BME280;24231;52.514;13.438;2023-04-01T11:55:06;99659.37;;;7.09;88.79
38452;BME280;24231;52.514;13.438;2023-04-01T11:57:51;99667.96;;;7.39;88.15
38452;BME280;24231;52.514;13.438;2023-04-01T12:00:44;99667.89;;;6.79;92.09
38452;BME280;24231;52.514;13.438;2023-04-01T12:03:28;99664.08;;;8.08;85.41
38452;BME280;24231;52.514;13.438;2023-04-01T12:06:05;99672.09;;;7.55;87.53
38452;BME280;24231;52.514;13.438;2023-04-01T12:08:41;99676.05;;;8.79;80.98
38452;BME280;24231;52.514;13.438;2023-04-01T12:11:17;99680.13;;;9.11;80.20
38452;BME280;24231;52.514;13.438;2023-04-01T12:13:53;99687.46;;;7.77;84.85
38452;BME280;24231;52.514;13.438;2023-04-01T12:16:39;99683.71;;;8.58;80.69
38452;BME280;24231;52.514;13.438;2023-04-01T12:19:15;99688.06;;;7.40;86.36
38452;BME280;24231;52.514;13.438;2023-04-01T12:21:53;99689.66;;;7.10;89.71
38452;BME280;24231;52.514;13.438;2023-04-01T12:24:37;99690.81;;;7.93;85.37
38452;BME280;24231;52.514;13.438;2023-04-01T12:27:14;99699.66;;;7.17;89.68
38452;BME280;24231;52.514;13.438;2023-04-01T12:30:09;99694.39;;;8.49;84.47
38452;BME280;24231;52.514;13.438;2023-04-01T12:32:45;99698.42;;;8.16;82.36
38452;BME280;24231;52.514;13.438;2023-04-01T12:35:19;99703.36;;;9.01;79.99
38452;BME280;24231;52.514;13.438;2023-04-01T12:37:55;99702.93;;;8.92;78.61
38452;BME280;24231;52.514;13.438;2023-04-01T12:40:42;99707.68;;;8.22;82.63
38452;BME280;24231;52.514;13.438;2023-04-01T12:43:35;99707.03;;;9.18;79.31
38452;BME280;24231;52.514;13.438;2023-04-01T12:46:16;99707.92;;;8.50;80.93
38452;BME280;24231;52.514;13.438;2023-04-01T12:49:16;99716.03;;;9.25;77.70
38452;BME280;24231;52.514;13.438;2023-04-01T12:51:59;99711.83;;;8.59;78.91
38452;BME280;24231;52.514;13.438;2023-04-01T12:54:48;99715.91;;;8.56;79.46
38452;BME280;24231;52.514;13.438;2023-04-01T12:57:43;99723.02;;;8.55;81.32
38452;BME280;24231;52.514;13.438;2023-04-01T13:00:25;99722.26;;;9.05;78.16
38452;BME280;24231;52.514;13.438;2023-04-01T13:03:10;99738.78;;;8.27;79.52
38452;BME280;24231;52.514;13.438;2023-04-01T13:06:56;99733.58;;;8.31;80.30
38452;BME280;24231;52.514;13.438;2023-04-01T13:09:38;99737.77;;;9.05;77.52
38452;BME280;24231;52.514;13.438;2023-04-01T13:12:25;99739.34;;;9.21;77.01
38452;BME280;24231;52.514;13.438;2023-04-01T13:15:08;99742.64;;;8.85;77.88
38452;BME280;24231;52.514;13.438;2023-04-01T13:17:44;99749.31;;;7.82;80.64
38452;BME280;24231;52.514;13.438;2023-04-01T13:20:16;99752.13;;;8.57;79.34
38452;BME280;24231;52.514;13.438;2023-04-01T13:23:00;99755.63;;;7.98;82.12
38452;BME280;24231;52.514;13.438;2023-04-01T13:25:37;99758.66;;;7.91;83.12
38452;BME280;24231;52.514;13.438;2023-04-01T13:28:12;99758.10;;;8.71;79.04
38452;BME280;24231;52.514;13.438;2023-04-01T13:30:49;99762.95;;;9.57;74.46
38452;BME280;24231;52.514;13.438;2023-04-01T13:33:27;99765.73;;;8.10;80.20
38452;BME280;24231;52.514;13.438;2023-04-01T13:36:08;99770.97;;;9.29;76.15
38452;BME280;24231;52.514;13.438;2023-04-01T13:39:18;99774.09;;;7.60;80.99
38452;BME280;24231;52.514;13.438;2023-04-01T13:42:00;99775.56;;;8.95;76.32
38452;BME280;24231;52.514;13.438;2023-04-01T13:44:33;99780.41;;;8.30;78.30
38452;BME280;24231;52.514;13.438;2023-04-01T13:47:16;99785.86;;;8.00;80.03
38452;BME280;24231;52.514;13.438;2023-04-01T13:50:01;99787.96;;;7.01;85.37
38452;BME280;24231;52.514;13.438;2023-04-01T13:55:03;99784.38;;;7.93;81.64
38452;BME280;24231;52.514;13.438;2023-04-01T13:57:48;99791.51;;;8.37;77.75
38452;BME280;24231;52.514;13.438;2023-04-01T14:00:27;99795.23;;;8.06;78.92
38452;BME280;24231;52.514;13.438;2023-04-01T14:03:14;99797.77;;;8.23;78.49